AVA9266 SKCL-SKPS
Flight info
| Callsign | AVA9266 |
|---|---|
| Flight time | 0h 29m |
| Altitude | 20000 |
| Route | ISOPA4B ISOPA G675 MER |
| Aircraft | A320/M-SDE3FGHIRWY/LB1 |
Departure
| Time | 2026-05-06 18:02 |
|---|---|
| Airport | Alfonso Bonilla Aragon International Airport (SKCL) |
Arrival
| Time | 2026-05-06 18:31 |
|---|---|
| Airport | Antonio Nariño Airport (SKPS) |
| Time | Latitude | Longitude | Altitude | Speed | Heading |
|---|---|---|---|---|---|
| 2026-05-06 17:46 | 3.53823 | -76.38701 | 3163 ft | 0 kts | 265° |
| 2026-05-06 17:55 | 3.53823 | -76.38697 | 3163 ft | 3 kts | 265° |
| 2026-05-06 17:55 | 3.53826 | -76.38671 | 3166 ft | 4 kts | 263° |
| 2026-05-06 17:55 | 3.53831 | -76.38644 | 3163 ft | 4 kts | 249° |
| 2026-05-06 17:55 | 3.53843 | -76.38624 | 3165 ft | 4 kts | 199° |
| 2026-05-06 17:56 | 3.53852 | -76.38623 | 3164 ft | 0 kts | 145° |
| 2026-05-06 17:58 | 3.53846 | -76.38618 | 3164 ft | 2 kts | 140° |
| 2026-05-06 17:58 | 3.53864 | -76.38567 | 3165 ft | 15 kts | 33° |
| 2026-05-06 17:58 | 3.53979 | -76.38471 | 3164 ft | 27 kts | 39° |
| 2026-05-06 17:58 | 3.54145 | -76.38361 | 3168 ft | 28 kts | 13° |
| 2026-05-06 17:59 | 3.54341 | -76.38328 | 3166 ft | 29 kts | 9° |
| 2026-05-06 17:59 | 3.54539 | -76.38294 | 3164 ft | 29 kts | 10° |
| 2026-05-06 17:59 | 3.54739 | -76.38258 | 3165 ft | 29 kts | 9° |
| 2026-05-06 17:59 | 3.54939 | -76.38225 | 3168 ft | 29 kts | 9° |
| 2026-05-06 18:00 | 3.55135 | -76.38190 | 3168 ft | 28 kts | 9° |
| 2026-05-06 18:00 | 3.55327 | -76.38157 | 3173 ft | 27 kts | 10° |
| 2026-05-06 18:00 | 3.55510 | -76.38125 | 3177 ft | 26 kts | 10° |
| 2026-05-06 18:00 | 3.55651 | -76.38100 | 3177 ft | 13 kts | 14° |
| 2026-05-06 18:01 | 3.55662 | -76.38040 | 3176 ft | 9 kts | 95° |
| 2026-05-06 18:01 | 3.55653 | -76.37982 | 3180 ft | 8 kts | 99° |
| 2026-05-06 18:01 | 3.55588 | -76.37946 | 3173 ft | 23 kts | 196° |
| 2026-05-06 18:01 | 3.55264 | -76.38003 | 3168 ft | 83 kts | 190° |
| 2026-05-06 18:02 | 3.54478 | -76.38139 | 3164 ft | 144 kts | 189° |
| 2026-05-06 18:02 | 3.53336 | -76.38334 | 3311 ft | 180 kts | 190° |
| 2026-05-06 18:02 | 3.52112 | -76.38544 | 4065 ft | 178 kts | 190° |
| 2026-05-06 18:02 | 3.50900 | -76.38756 | 4558 ft | 176 kts | 190° |
| 2026-05-06 18:03 | 3.49689 | -76.38968 | 5037 ft | 177 kts | 191° |
| 2026-05-06 18:03 | 3.48478 | -76.39179 | 5583 ft | 176 kts | 191° |
| 2026-05-06 18:03 | 3.47271 | -76.39389 | 6124 ft | 176 kts | 191° |
| 2026-05-06 18:03 | 3.46018 | -76.39608 | 6426 ft | 193 kts | 191° |
| 2026-05-06 18:04 | 3.44619 | -76.39855 | 6585 ft | 215 kts | 191° |
| 2026-05-06 18:04 | 3.43063 | -76.40128 | 6754 ft | 240 kts | 191° |
| 2026-05-06 18:04 | 3.41338 | -76.40431 | 7025 ft | 264 kts | 190° |
| 2026-05-06 18:04 | 3.39494 | -76.40918 | 7395 ft | 282 kts | 204° |
| 2026-05-06 18:05 | 3.37689 | -76.41750 | 8068 ft | 288 kts | 205° |
| 2026-05-06 18:05 | 3.35882 | -76.42586 | 8800 ft | 292 kts | 204° |
| 2026-05-06 18:05 | 3.34002 | -76.43455 | 9560 ft | 295 kts | 204° |
| 2026-05-06 18:05 | 3.32148 | -76.44311 | 10235 ft | 301 kts | 203° |
| 2026-05-06 18:06 | 3.30169 | -76.45222 | 10440 ft | 324 kts | 203° |
| 2026-05-06 18:06 | 3.28055 | -76.46195 | 10699 ft | 343 kts | 203° |
| 2026-05-06 18:06 | 3.25863 | -76.47203 | 11262 ft | 349 kts | 203° |
| 2026-05-06 18:06 | 3.23643 | -76.48224 | 11883 ft | 354 kts | 203° |
| 2026-05-06 18:07 | 3.21398 | -76.49258 | 12538 ft | 357 kts | 202° |
| 2026-05-06 18:07 | 3.19131 | -76.50305 | 13184 ft | 360 kts | 202° |
| 2026-05-06 18:07 | 3.16845 | -76.51360 | 13808 ft | 364 kts | 202° |
| 2026-05-06 18:07 | 3.14532 | -76.52428 | 14347 ft | 368 kts | 202° |
| 2026-05-06 18:08 | 3.12195 | -76.53508 | 14889 ft | 371 kts | 202° |
| 2026-05-06 18:08 | 3.09838 | -76.54596 | 15423 ft | 375 kts | 202° |
| 2026-05-06 18:08 | 3.07454 | -76.55697 | 15949 ft | 379 kts | 202° |
| 2026-05-06 18:08 | 3.05051 | -76.56809 | 16479 ft | 383 kts | 202° |
| 2026-05-06 18:09 | 3.02620 | -76.57933 | 16992 ft | 387 kts | 202° |
| 2026-05-06 18:09 | 3.00163 | -76.59067 | 17518 ft | 390 kts | 202° |
| 2026-05-06 18:09 | 2.97686 | -76.60212 | 18023 ft | 394 kts | 202° |
| 2026-05-06 18:09 | 2.95184 | -76.61368 | 18511 ft | 398 kts | 203° |
| 2026-05-06 18:10 | 2.92662 | -76.62533 | 18966 ft | 400 kts | 203° |
| 2026-05-06 18:10 | 2.90129 | -76.63706 | 19418 ft | 403 kts | 203° |
| 2026-05-06 18:10 | 2.87580 | -76.64888 | 19845 ft | 405 kts | 203° |
| 2026-05-06 18:10 | 2.85016 | -76.66073 | 19986 ft | 406 kts | 202° |
| 2026-05-06 18:11 | 2.82501 | -76.67237 | 20029 ft | 402 kts | 202° |
| 2026-05-06 18:11 | 2.80793 | -76.68029 | 20028 ft | 400 kts | 203° |
| 2026-05-06 18:11 | 2.77451 | -76.69579 | 20050 ft | 399 kts | 202° |
| 2026-05-06 18:11 | 2.74929 | -76.70741 | 20064 ft | 400 kts | 202° |
| 2026-05-06 18:12 | 2.72398 | -76.71907 | 20078 ft | 400 kts | 202° |
| 2026-05-06 18:12 | 2.69872 | -76.73071 | 20093 ft | 399 kts | 202° |
| 2026-05-06 18:12 | 2.67348 | -76.74233 | 20106 ft | 400 kts | 202° |
| 2026-05-06 18:12 | 2.65643 | -76.75020 | 20114 ft | 400 kts | 202° |
| 2026-05-06 18:13 | 2.62298 | -76.76568 | 20126 ft | 400 kts | 203° |
| 2026-05-06 18:13 | 2.60591 | -76.77358 | 20129 ft | 400 kts | 203° |
| 2026-05-06 18:13 | 2.58101 | -76.78511 | 20137 ft | 400 kts | 202° |
| 2026-05-06 18:13 | 2.55575 | -76.79676 | 20135 ft | 400 kts | 202° |
| 2026-05-06 18:14 | 2.53047 | -76.80840 | 20140 ft | 400 kts | 202° |
| 2026-05-06 18:14 | 2.50517 | -76.82000 | 20138 ft | 400 kts | 202° |
| 2026-05-06 18:14 | 2.47986 | -76.83162 | 20133 ft | 400 kts | 202° |
| 2026-05-06 18:14 | 2.45460 | -76.84322 | 20128 ft | 400 kts | 202° |
| 2026-05-06 18:15 | 2.42928 | -76.85486 | 20118 ft | 400 kts | 202° |
| 2026-05-06 18:15 | 2.40399 | -76.86653 | 20103 ft | 400 kts | 202° |
| 2026-05-06 18:15 | 2.37875 | -76.87824 | 20045 ft | 400 kts | 202° |
| 2026-05-06 18:15 | 2.35352 | -76.88995 | 20047 ft | 400 kts | 202° |
| 2026-05-06 18:16 | 2.32827 | -76.90164 | 20057 ft | 400 kts | 202° |
| 2026-05-06 18:16 | 2.30300 | -76.91335 | 20060 ft | 400 kts | 202° |
| 2026-05-06 18:16 | 2.27770 | -76.92505 | 20061 ft | 400 kts | 202° |
| 2026-05-06 18:16 | 2.25249 | -76.93674 | 20059 ft | 400 kts | 202° |
| 2026-05-06 18:17 | 2.22725 | -76.94843 | 20048 ft | 399 kts | 202° |
| 2026-05-06 18:17 | 2.20205 | -76.96009 | 20045 ft | 399 kts | 202° |
| 2026-05-06 18:17 | 2.17686 | -76.97176 | 20043 ft | 399 kts | 202° |
| 2026-05-06 18:17 | 2.15166 | -76.98341 | 20042 ft | 399 kts | 202° |
| 2026-05-06 18:18 | 2.12635 | -76.99511 | 20029 ft | 403 kts | 202° |
| 2026-05-06 18:18 | 2.10118 | -77.00676 | 20029 ft | 405 kts | 202° |
| 2026-05-06 18:18 | 2.07575 | -77.01853 | 19767 ft | 401 kts | 202° |
| 2026-05-06 18:18 | 2.05055 | -77.03023 | 19296 ft | 397 kts | 202° |
| 2026-05-06 18:19 | 2.02577 | -77.04175 | 18548 ft | 391 kts | 202° |
| 2026-05-06 18:19 | 2.00125 | -77.05312 | 17691 ft | 386 kts | 202° |
| 2026-05-06 18:19 | 1.97699 | -77.06434 | 16842 ft | 381 kts | 202° |
| 2026-05-06 18:19 | 1.95311 | -77.07535 | 16042 ft | 376 kts | 202° |
| 2026-05-06 18:20 | 1.92959 | -77.08621 | 15447 ft | 366 kts | 202° |
| 2026-05-06 18:20 | 1.90691 | -77.09670 | 15010 ft | 352 kts | 201° |
| 2026-05-06 18:20 | 1.88504 | -77.10684 | 14589 ft | 341 kts | 201° |
| 2026-05-06 18:20 | 1.86389 | -77.11667 | 14310 ft | 327 kts | 201° |
| 2026-05-06 18:21 | 1.84385 | -77.12598 | 14190 ft | 308 kts | 201° |
| 2026-05-06 18:21 | 1.82477 | -77.13482 | 13890 ft | 299 kts | 201° |
| 2026-05-06 18:21 | 1.80610 | -77.14341 | 13550 ft | 293 kts | 201° |
| 2026-05-06 18:21 | 1.78761 | -77.15193 | 13305 ft | 292 kts | 201° |
| 2026-05-06 18:22 | 1.76947 | -77.16097 | 13079 ft | 291 kts | 204° |
| 2026-05-06 18:22 | 1.75167 | -77.17047 | 12832 ft | 289 kts | 205° |
| 2026-05-06 18:22 | 1.73407 | -77.18006 | 12582 ft | 288 kts | 205° |
| 2026-05-06 18:22 | 1.71656 | -77.18965 | 12336 ft | 287 kts | 205° |
| 2026-05-06 18:23 | 1.69906 | -77.19920 | 12097 ft | 286 kts | 205° |
| 2026-05-06 18:23 | 1.68162 | -77.20865 | 11854 ft | 285 kts | 205° |
| 2026-05-06 18:23 | 1.66421 | -77.21802 | 11609 ft | 283 kts | 205° |
| 2026-05-06 18:23 | 1.64690 | -77.22732 | 11370 ft | 282 kts | 205° |
| 2026-05-06 18:24 | 1.62960 | -77.23660 | 11147 ft | 279 kts | 204° |
| 2026-05-06 18:24 | 1.61260 | -77.24568 | 10915 ft | 276 kts | 204° |
| 2026-05-06 18:24 | 1.59568 | -77.25473 | 10579 ft | 275 kts | 205° |
| 2026-05-06 18:24 | 1.57884 | -77.26375 | 10312 ft | 272 kts | 204° |
| 2026-05-06 18:25 | 1.56207 | -77.27271 | 10206 ft | 274 kts | 204° |
| 2026-05-06 18:25 | 1.54552 | -77.28154 | 10073 ft | 273 kts | 205° |
| 2026-05-06 18:25 | 1.52886 | -77.29044 | 9865 ft | 272 kts | 205° |
| 2026-05-06 18:25 | 1.51188 | -77.29926 | 9338 ft | 279 kts | 203° |
| 2026-05-06 18:26 | 1.49484 | -77.30782 | 9097 ft | 268 kts | 204° |
| 2026-05-06 18:26 | 1.47862 | -77.31590 | 8996 ft | 253 kts | 203° |
| 2026-05-06 18:26 | 1.46337 | -77.32350 | 8881 ft | 238 kts | 203° |
| 2026-05-06 18:26 | 1.44894 | -77.33070 | 8786 ft | 227 kts | 203° |
| 2026-05-06 18:27 | 1.43515 | -77.33758 | 8717 ft | 217 kts | 203° |
| 2026-05-06 18:27 | 1.42194 | -77.34417 | 8713 ft | 201 kts | 203° |
| 2026-05-06 18:27 | 1.41028 | -77.35005 | 8717 ft | 177 kts | 202° |
| 2026-05-06 18:27 | 1.39960 | -77.35541 | 8814 ft | 168 kts | 203° |
| 2026-05-06 18:28 | 1.38923 | -77.36059 | 8810 ft | 166 kts | 200° |
| 2026-05-06 18:28 | 1.37857 | -77.36477 | 8676 ft | 165 kts | 187° |
| 2026-05-06 18:28 | 1.36743 | -77.36511 | 8422 ft | 157 kts | 167° |
| 2026-05-06 18:28 | 1.35717 | -77.36195 | 8212 ft | 153 kts | 150° |
| 2026-05-06 18:29 | 1.34858 | -77.35585 | 8012 ft | 152 kts | 133° |
| 2026-05-06 18:29 | 1.34225 | -77.34730 | 7789 ft | 156 kts | 116° |
| 2026-05-06 18:29 | 1.33892 | -77.33698 | 7534 ft | 156 kts | 98° |
| 2026-05-06 18:29 | 1.33906 | -77.32618 | 7305 ft | 156 kts | 79° |
| 2026-05-06 18:30 | 1.34267 | -77.31601 | 7121 ft | 156 kts | 59° |
| 2026-05-06 18:30 | 1.34938 | -77.30755 | 6861 ft | 155 kts | 41° |
| 2026-05-06 18:30 | 1.35841 | -77.30165 | 6630 ft | 157 kts | 24° |
| 2026-05-06 18:30 | 1.36889 | -77.29844 | 6389 ft | 159 kts | 16° |
| 2026-05-06 18:31 | 1.37950 | -77.29558 | 6147 ft | 161 kts | 16° |
| 2026-05-06 18:31 | 1.39035 | -77.29267 | 5949 ft | 158 kts | 14° |
| 2026-05-06 18:31 | 1.39937 | -77.29024 | 5889 ft | 95 kts | 15° |
| 2026-05-06 18:31 | 1.40355 | -77.28913 | 5872 ft | 45 kts | 14° |
| 2026-05-06 18:32 | 1.40554 | -77.28861 | 5861 ft | 19 kts | 11° |
| 2026-05-06 18:32 | 1.40623 | -77.28850 | 5852 ft | 4 kts | 97° |
| 2026-05-06 18:32 | 1.40603 | -77.28848 | 5853 ft | 4 kts | 192° |
| 2026-05-06 18:32 | 1.40554 | -77.28859 | 5861 ft | 10 kts | 193° |
| 2026-05-06 18:33 | 1.40471 | -77.28881 | 5860 ft | 15 kts | 196° |
| 2026-05-06 18:33 | 1.40362 | -77.28910 | 5869 ft | 17 kts | 194° |
| 2026-05-06 18:33 | 1.40246 | -77.28940 | 5883 ft | 17 kts | 194° |
| 2026-05-06 18:33 | 1.40128 | -77.28972 | 5879 ft | 18 kts | 194° |
| 2026-05-06 18:34 | 1.40005 | -77.29004 | 5889 ft | 18 kts | 197° |
| 2026-05-06 18:34 | 1.39895 | -77.29034 | 5892 ft | 15 kts | 194° |
| 2026-05-06 18:34 | 1.39800 | -77.29060 | 5897 ft | 15 kts | 195° |
| 2026-05-06 18:34 | 1.39700 | -77.29085 | 5902 ft | 12 kts | 194° |
| 2026-05-06 18:35 | 1.39630 | -77.29102 | 5906 ft | 9 kts | 193° |
| 2026-05-06 18:35 | 1.39593 | -77.29064 | 5908 ft | 10 kts | 102° |
| 2026-05-06 18:35 | 1.39577 | -77.29002 | 5908 ft | 5 kts | 105° |
| 2026-05-06 18:35 | 1.39574 | -77.28991 | 5908 ft | 0 kts | 105° |